Busy Bee — BUSYB — position and weather

sailwx.info

Track history (hours):
 
Tides and Currents Weather Stations Pressure Air Temp Water Temp Dewpoint Dewpoint Depression Visibility Wind Speed Wind Dir Waves Ship Positions

Busy Bee

Last reported at 2017-Apr-20 08:54 UTC. Time now 2017-Apr-28 02:19 UTC.
Position N 34°42' E 135°19'.

Length 15 m.

Type: Sailing vessel. MMSI: 431002814.

Date/timePositionNaut miles runAvg speedWind from/ knotsBaromVisibWave heightAir tempDewpointWater temp
2017-Apr-20 08:54N 34°42' E 135°19'3 7.2
2017-Apr-20 08:30N 34°39' E 135°17'4 7.2
2017-Apr-20 07:56N 34°36' E 135°13'4 7.2
2017-Apr-20 07:20N 34°33' E 135°09'2 0.5
2017-Apr-20 03:30N 34°35' E 135°09'4 7.3
2017-Apr-20 03:00N 34°37' E 135°13'4 6.9
2017-Apr-20 02:29N 34°39' E 135°17'  
2017-Apr-14 09:52N 34°42' E 135°20'2 6.3
2017-Apr-14 09:30N 34°40' E 135°18'4 7.1
2017-Apr-14 08:59N 34°38' E 135°15'0 0.4
2017-Apr-14 08:27N 34°38' E 135°15'0 0.3
2017-Apr-14 07:24N 34°38' E 135°14'0 0.5
2017-Apr-14 07:00N 34°38' E 135°15'0 0.2
2017-Apr-14 06:16N 34°38' E 135°14'0 0.4
2017-Apr-14 05:50N 34°38' E 135°15'2 4.9
2017-Apr-14 05:24N 34°39' E 135°17'  
Track history (hours):
 
Tides and Currents Weather Stations Pressure Air Temp Water Temp Dewpoint Dewpoint Depression Visibility Wind Speed Wind Dir Waves Ship Positions

Busy Bee

Last reported at 2017-Apr-20 08:54 UTC. Time now 2017-Apr-28 02:19 UTC.
Position N 34°42' E 135°19'.

Length 15 m.

Type: Sailing vessel. MMSI: 431002814.

Date/timePositionNaut miles runAvg speedWind from/ knotsBaromVisibWave heightAir tempDewpointWater temp
2017-Apr-20 08:54N 34°42' E 135°19'3 7.2
2017-Apr-20 08:30N 34°39' E 135°17'4 7.2
2017-Apr-20 07:56N 34°36' E 135°13'4 7.2
2017-Apr-20 07:20N 34°33' E 135°09'2 0.5
2017-Apr-20 03:30N 34°35' E 135°09'4 7.3
2017-Apr-20 03:00N 34°37' E 135°13'4 6.9
2017-Apr-20 02:29N 34°39' E 135°17'  
2017-Apr-14 09:52N 34°42' E 135°20'2 6.3
2017-Apr-14 09:30N 34°40' E 135°18'4 7.1
2017-Apr-14 08:59N 34°38' E 135°15'0 0.4
2017-Apr-14 08:27N 34°38' E 135°15'0 0.3
2017-Apr-14 07:24N 34°38' E 135°14'0 0.5
2017-Apr-14 07:00N 34°38' E 135°15'0 0.2
2017-Apr-14 06:16N 34°38' E 135°14'0 0.4
2017-Apr-14 05:50N 34°38' E 135°15'2 4.9
2017-Apr-14 05:24N 34°39' E 135°17'  

Dump ship's entire track history